sensor_id;sensor_type;location;lat;lon;timestamp;P1;durP1;ratioP1;P2;durP2;ratioP2
6475;SDS011;3271;51.910;5.840;2023-04-24T00:00:46;4.40;;;4.10;;
6475;SDS011;3271;51.910;5.840;2023-04-24T00:03:13;5.03;;;4.57;;
6475;SDS011;3271;51.910;5.840;2023-04-24T00:05:38;4.60;;;4.22;;
6475;SDS011;3271;51.910;5.840;2023-04-24T00:08:05;3.10;;;2.90;;
6475;SDS011;3271;51.910;5.840;2023-04-24T00:10:31;3.15;;;2.95;;
6475;SDS011;3271;51.910;5.840;2023-04-24T00:12:57;2.97;;;2.70;;
6475;SDS011;3271;51.910;5.840;2023-04-24T00:15:23;2.42;;;2.33;;
6475;SDS011;3271;51.910;5.840;2023-04-24T00:17:49;2.92;;;2.72;;
6475;SDS011;3271;51.910;5.840;2023-04-24T00:20:15;3.53;;;2.72;;
6475;SDS011;3271;51.910;5.840;2023-04-24T00:22:41;3.40;;;3.20;;
6475;SDS011;3271;51.910;5.840;2023-04-24T00:25:07;3.97;;;3.67;;
6475;SDS011;3271;51.910;5.840;2023-04-24T00:27:33;3.90;;;3.60;;
6475;SDS011;3271;51.910;5.840;2023-04-24T00:30:01;2.72;;;2.53;;
6475;SDS011;3271;51.910;5.840;2023-04-24T00:32:27;1.73;;;1.63;;
6475;SDS011;3271;51.910;5.840;2023-04-24T00:34:53;1.60;;;1.50;;
6475;SDS011;3271;51.910;5.840;2023-04-24T00:37:19;1.40;;;1.30;;
6475;SDS011;3271;51.910;5.840;2023-04-24T00:39:45;1.10;;;1.10;;
6475;SDS011;3271;51.910;5.840;2023-04-24T00:42:11;1.52;;;1.42;;
6475;SDS011;3271;51.910;5.840;2023-04-24T00:44:37;1.98;;;1.88;;
6475;SDS011;3271;51.910;5.840;2023-04-24T00:47:04;5.05;;;4.60;;
6475;SDS011;3271;51.910;5.840;2023-04-24T00:49:30;7.15;;;6.45;;
6475;SDS011;3271;51.910;5.840;2023-04-24T00:51:56;7.10;;;6.22;;
6475;SDS011;3271;51.910;5.840;2023-04-24T00:54:24;7.78;;;7.07;;
6475;SDS011;3271;51.910;5.840;2023-04-24T00:56:50;8.77;;;7.88;;
6475;SDS011;3271;51.910;5.840;2023-04-24T00:59:16;9.50;;;8.10;;
6475;SDS011;3271;51.910;5.840;2023-04-24T01:01:43;9.38;;;8.43;;
6475;SDS011;3271;51.910;5.840;2023-04-24T01:04:09;8.07;;;7.28;;
6475;SDS011;3271;51.910;5.840;2023-04-24T01:06:36;9.93;;;7.82;;
6475;SDS011;3271;51.910;5.840;2023-04-24T01:09:04;10.40;;;9.40;;
6475;SDS011;3271;51.910;5.840;2023-04-24T01:11:30;10.00;;;8.93;;
6475;SDS011;3271;51.910;5.840;2023-04-24T01:13:56;9.88;;;9.00;;
6475;SDS011;3271;51.910;5.840;2023-04-24T01:16:23;10.65;;;9.65;;
6475;SDS011;3271;51.910;5.840;2023-04-24T01:18:49;11.38;;;10.38;;
6475;SDS011;3271;51.910;5.840;2023-04-24T01:21:16;9.50;;;8.63;;
6475;SDS011;3271;51.910;5.840;2023-04-24T01:23:45;9.10;;;8.30;;
6475;SDS011;3271;51.910;5.840;2023-04-24T01:26:11;9.90;;;9.00;;
6475;SDS011;3271;51.910;5.840;2023-04-24T01:28:37;10.43;;;9.45;;
6475;SDS011;3271;51.910;5.840;2023-04-24T01:31:03;9.05;;;8.23;;
6475;SDS011;3271;51.910;5.840;2023-04-24T01:33:29;9.85;;;8.95;;
6475;SDS011;3271;51.910;5.840;2023-04-24T01:35:55;10.25;;;9.40;;
6475;SDS011;3271;51.910;5.840;2023-04-24T01:38:22;9.43;;;8.52;;
6475;SDS011;3271;51.910;5.840;2023-04-24T01:40:48;9.40;;;8.30;;
6475;SDS011;3271;51.910;5.840;2023-04-24T01:43:15;9.15;;;8.25;;
6475;SDS011;3271;51.910;5.840;2023-04-24T01:45:41;8.25;;;7.55;;
6475;SDS011;3271;51.910;5.840;2023-04-24T01:48:07;7.60;;;6.95;;
6475;SDS011;3271;51.910;5.840;2023-04-24T01:50:33;7.90;;;7.10;;
6475;SDS011;3271;51.910;5.840;2023-04-24T01:52:58;8.90;;;8.00;;
6475;SDS011;3271;51.910;5.840;2023-04-24T01:55:24;9.10;;;8.30;;
6475;SDS011;3271;51.910;5.840;2023-04-24T01:57:52;9.13;;;8.32;;
6475;SDS011;3271;51.910;5.840;2023-04-24T02:00:18;9.48;;;8.55;;
6475;SDS011;3271;51.910;5.840;2023-04-24T02:02:44;8.88;;;7.97;;
6475;SDS011;3271;51.910;5.840;2023-04-24T02:05:10;10.75;;;9.75;;
6475;SDS011;3271;51.910;5.840;2023-04-24T02:07:35;10.65;;;9.65;;
6475;SDS011;3271;51.910;5.840;2023-04-24T02:10:02;10.23;;;9.27;;
6475;SDS011;3271;51.910;5.840;2023-04-24T02:12:29;11.05;;;9.35;;
6475;SDS011;3271;51.910;5.840;2023-04-24T02:14:55;10.40;;;9.27;;
6475;SDS011;3271;51.910;5.840;2023-04-24T02:17:20;11.07;;;9.32;;
6475;SDS011;3271;51.910;5.840;2023-04-24T02:19:47;11.85;;;9.57;;
6475;SDS011;3271;51.910;5.840;2023-04-24T02:22:13;11.40;;;10.32;;
6475;SDS011;3271;51.910;5.840;2023-04-24T02:24:39;10.07;;;9.07;;
6475;SDS011;3271;51.910;5.840;2023-04-24T02:27:05;11.05;;;10.05;;
6475;SDS011;3271;51.910;5.840;2023-04-24T02:29:31;10.18;;;9.25;;
6475;SDS011;3271;51.910;5.840;2023-04-24T02:31:57;11.30;;;10.20;;
6475;SDS011;3271;51.910;5.840;2023-04-24T02:34:23;11.25;;;10.00;;
6475;SDS011;3271;51.910;5.840;2023-04-24T02:36:49;10.98;;;9.88;;
6475;SDS011;3271;51.910;5.840;2023-04-24T02:39:15;8.55;;;7.68;;
6475;SDS011;3271;51.910;5.840;2023-04-24T02:41:44;9.07;;;8.27;;
6475;SDS011;3271;51.910;5.840;2023-04-24T02:44:09;10.93;;;9.82;;
6475;SDS011;3271;51.910;5.840;2023-04-24T02:46:35;9.98;;;9.07;;
6475;SDS011;3271;51.910;5.840;2023-04-24T02:49:01;10.68;;;9.75;;
6475;SDS011;3271;51.910;5.840;2023-04-24T02:51:27;10.80;;;8.43;;
6475;SDS011;3271;51.910;5.840;2023-04-24T02:53:53;10.35;;;9.40;;
6475;SDS011;3271;51.910;5.840;2023-04-24T02:56:19;10.23;;;9.18;;
6475;SDS011;3271;51.910;5.840;2023-04-24T02:58:45;9.40;;;8.50;;
6475;SDS011;3271;51.910;5.840;2023-04-24T03:01:11;10.23;;;9.10;;
6475;SDS011;3271;51.910;5.840;2023-04-24T03:03:38;9.80;;;8.90;;
6475;SDS011;3271;51.910;5.840;2023-04-24T03:06:04;9.70;;;8.38;;
6475;SDS011;3271;51.910;5.840;2023-04-24T03:08:33;8.80;;;8.00;;
6475;SDS011;3271;51.910;5.840;2023-04-24T03:10:59;9.43;;;8.60;;
6475;SDS011;3271;51.910;5.840;2023-04-24T03:13:25;9.68;;;8.85;;
6475;SDS011;3271;51.910;5.840;2023-04-24T03:15:51;9.70;;;8.75;;
6475;SDS011;3271;51.910;5.840;2023-04-24T03:18:17;10.63;;;9.52;;
6475;SDS011;3271;51.910;5.840;2023-04-24T03:20:45;11.15;;;10.10;;
6475;SDS011;3271;51.910;5.840;2023-04-24T03:23:11;12.80;;;11.05;;
6475;SDS011;3271;51.910;5.840;2023-04-24T03:25:37;11.73;;;10.52;;
6475;SDS011;3271;51.910;5.840;2023-04-24T03:28:03;13.77;;;12.38;;
6475;SDS011;3271;51.910;5.840;2023-04-24T03:30:29;13.98;;;12.43;;
6475;SDS011;3271;51.910;5.840;2023-04-24T03:32:55;13.82;;;12.38;;
6475;SDS011;3271;51.910;5.840;2023-04-24T03:35:21;14.23;;;11.90;;
6475;SDS011;3271;51.910;5.840;2023-04-24T03:37:47;13.52;;;12.10;;
6475;SDS011;3271;51.910;5.840;2023-04-24T03:40:13;14.80;;;13.30;;
6475;SDS011;3271;51.910;5.840;2023-04-24T03:42:39;15.25;;;13.73;;
6475;SDS011;3271;51.910;5.840;2023-04-24T03:45:05;14.10;;;12.68;;
6475;SDS011;3271;51.910;5.840;2023-04-24T03:47:31;14.25;;;12.75;;
6475;SDS011;3271;51.910;5.840;2023-04-24T03:49:57;15.75;;;13.50;;
6475;SDS011;3271;51.910;5.840;2023-04-24T03:52:23;13.75;;;12.38;;
6475;SDS011;3271;51.910;5.840;2023-04-24T03:54:49;13.95;;;11.82;;
6475;SDS011;3271;51.910;5.840;2023-04-24T03:57:15;15.48;;;13.13;;
6475;SDS011;3271;51.910;5.840;2023-04-24T03:59:41;13.60;;;12.20;;
6475;SDS011;3271;51.910;5.840;2023-04-24T04:02:07;15.80;;;14.25;;
6475;SDS011;3271;51.910;5.840;2023-04-24T04:04:33;14.27;;;12.88;;
6475;SDS011;3271;51.910;5.840;2023-04-24T04:06:59;13.95;;;12.55;;
6475;SDS011;3271;51.910;5.840;2023-04-24T04:09:27;14.95;;;13.20;;
6475;SDS011;3271;51.910;5.840;2023-04-24T04:11:53;15.80;;;13.02;;
6475;SDS011;3271;51.910;5.840;2023-04-24T04:14:20;13.30;;;12.00;;
6475;SDS011;3271;51.910;5.840;2023-04-24T04:16:45;13.05;;;11.85;;
6475;SDS011;3271;51.910;5.840;2023-04-24T04:19:11;13.05;;;11.65;;
6475;SDS011;3271;51.910;5.840;2023-04-24T04:21:37;13.48;;;12.10;;
6475;SDS011;3271;51.910;5.840;2023-04-24T04:24:03;12.82;;;11.70;;
6475;SDS011;3271;51.910;5.840;2023-04-24T04:26:30;13.82;;;12.43;;
6475;SDS011;3271;51.910;5.840;2023-04-24T04:28:57;14.68;;;11.95;;
6475;SDS011;3271;51.910;5.840;2023-04-24T04:31:23;12.35;;;11.13;;
6475;SDS011;3271;51.910;5.840;2023-04-24T04:33:49;12.40;;;11.18;;
6475;SDS011;3271;51.910;5.840;2023-04-24T04:36:15;12.18;;;10.98;;
6475;SDS011;3271;51.910;5.840;2023-04-24T04:38:42;12.00;;;10.82;;
6475;SDS011;3271;51.910;5.840;2023-04-24T04:41:09;12.02;;;10.38;;
6475;SDS011;3271;51.910;5.840;2023-04-24T04:43:35;11.40;;;10.30;;
6475;SDS011;3271;51.910;5.840;2023-04-24T04:46:03;11.57;;;10.50;;
6475;SDS011;3271;51.910;5.840;2023-04-24T04:48:29;11.68;;;10.07;;
6475;SDS011;3271;51.910;5.840;2023-04-24T04:50:56;10.75;;;9.68;;
6475;SDS011;3271;51.910;5.840;2023-04-24T04:53:22;11.10;;;10.00;;
6475;SDS011;3271;51.910;5.840;2023-04-24T04:55:48;10.05;;;9.10;;
6475;SDS011;3271;51.910;5.840;2023-04-24T04:58:14;11.30;;;9.90;;
6475;SDS011;3271;51.910;5.840;2023-04-24T05:00:40;11.07;;;10.18;;
6475;SDS011;3271;51.910;5.840;2023-04-24T05:03:06;9.65;;;8.63;;
6475;SDS011;3271;51.910;5.840;2023-04-24T05:05:32;10.43;;;9.45;;
6475;SDS011;3271;51.910;5.840;2023-04-24T05:07:58;11.48;;;10.30;;
6475;SDS011;3271;51.910;5.840;2023-04-24T05:10:24;10.70;;;9.68;;
6475;SDS011;3271;51.910;5.840;2023-04-24T05:12:50;9.70;;;8.80;;
6475;SDS011;3271;51.910;5.840;2023-04-24T05:15:16;11.13;;;10.02;;
6475;SDS011;3271;51.910;5.840;2023-04-24T05:17:42;10.63;;;9.63;;
6475;SDS011;3271;51.910;5.840;2023-04-24T05:20:07;8.70;;;7.93;;
6475;SDS011;3271;51.910;5.840;2023-04-24T05:22:34;9.15;;;8.23;;
6475;SDS011;3271;51.910;5.840;2023-04-24T05:25:01;8.55;;;7.75;;
6475;SDS011;3271;51.910;5.840;2023-04-24T05:27:27;8.50;;;7.70;;
6475;SDS011;3271;51.910;5.840;2023-04-24T05:29:53;7.57;;;6.88;;
6475;SDS011;3271;51.910;5.840;2023-04-24T05:32:19;8.18;;;7.22;;
6475;SDS011;3271;51.910;5.840;2023-04-24T05:34:45;8.48;;;7.55;;
6475;SDS011;3271;51.910;5.840;2023-04-24T05:37:11;7.40;;;6.68;;
6475;SDS011;3271;51.910;5.840;2023-04-24T05:39:37;7.05;;;6.35;;
6475;SDS011;3271;51.910;5.840;2023-04-24T05:42:04;6.53;;;5.93;;
6475;SDS011;3271;51.910;5.840;2023-04-24T05:44:30;7.70;;;6.93;;
6475;SDS011;3271;51.910;5.840;2023-04-24T05:46:56;7.60;;;6.80;;
6475;SDS011;3271;51.910;5.840;2023-04-24T05:49:22;7.22;;;6.53;;
6475;SDS011;3271;51.910;5.840;2023-04-24T05:51:48;7.95;;;7.20;;
6475;SDS011;3271;51.910;5.840;2023-04-24T05:54:14;9.80;;;7.80;;
6475;SDS011;3271;51.910;5.840;2023-04-24T05:56:40;6.88;;;6.28;;
6475;SDS011;3271;51.910;5.840;2023-04-24T05:59:06;6.93;;;6.25;;
6475;SDS011;3271;51.910;5.840;2023-04-24T06:01:33;5.75;;;5.28;;
6475;SDS011;3271;51.910;5.840;2023-04-24T06:03:59;6.10;;;5.50;;
6475;SDS011;3271;51.910;5.840;2023-04-24T06:06:25;5.45;;;4.95;;
6475;SDS011;3271;51.910;5.840;2023-04-24T06:08:52;4.95;;;4.55;;
6475;SDS011;3271;51.910;5.840;2023-04-24T06:11:18;4.30;;;4.00;;
6475;SDS011;3271;51.910;5.840;2023-04-24T06:13:44;3.20;;;2.90;;
6475;SDS011;3271;51.910;5.840;2023-04-24T06:16:10;3.05;;;2.83;;
6475;SDS011;3271;51.910;5.840;2023-04-24T06:18:36;3.05;;;2.80;;
6475;SDS011;3271;51.910;5.840;2023-04-24T06:21:03;3.00;;;2.80;;
6475;SDS011;3271;51.910;5.840;2023-04-24T06:23:30;4.32;;;3.50;;
6475;SDS011;3271;51.910;5.840;2023-04-24T06:25:58;3.85;;;3.10;;
6475;SDS011;3271;51.910;5.840;2023-04-24T06:28:24;4.10;;;3.60;;
6475;SDS011;3271;51.910;5.840;2023-04-24T06:30:50;3.28;;;2.97;;
6475;SDS011;3271;51.910;5.840;2023-04-24T06:33:16;3.22;;;2.92;;
6475;SDS011;3271;51.910;5.840;2023-04-24T06:35:42;3.67;;;3.35;;
6475;SDS011;3271;51.910;5.840;2023-04-24T06:38:08;3.00;;;2.75;;
6475;SDS011;3271;51.910;5.840;2023-04-24T06:40:34;2.63;;;2.42;;
6475;SDS011;3271;51.910;5.840;2023-04-24T06:43:00;2.70;;;2.50;;
6475;SDS011;3271;51.910;5.840;2023-04-24T06:45:27;2.83;;;2.63;;
6475;SDS011;3271;51.910;5.840;2023-04-24T06:47:53;2.80;;;2.60;;
6475;SDS011;3271;51.910;5.840;2023-04-24T06:50:19;3.03;;;2.72;;
6475;SDS011;3271;51.910;5.840;2023-04-24T06:52:45;3.40;;;3.10;;
6475;SDS011;3271;51.910;5.840;2023-04-24T06:55:11;3.38;;;3.08;;
6475;SDS011;3271;51.910;5.840;2023-04-24T06:57:44;3.10;;;2.72;;
6475;SDS011;3271;51.910;5.840;2023-04-24T07:00:10;2.83;;;2.63;;
6475;SDS011;3271;51.910;5.840;2023-04-24T07:02:37;2.85;;;2.65;;
6475;SDS011;3271;51.910;5.840;2023-04-24T07:05:03;2.70;;;2.35;;
6475;SDS011;3271;51.910;5.840;2023-04-24T07:07:29;2.10;;;2.00;;
6475;SDS011;3271;51.910;5.840;2023-04-24T07:09:56;2.20;;;2.00;;
6475;SDS011;3271;51.910;5.840;2023-04-24T07:12:22;2.38;;;1.67;;
6475;SDS011;3271;51.910;5.840;2023-04-24T07:14:48;1.58;;;1.45;;
6475;SDS011;3271;51.910;5.840;2023-04-24T07:17:14;2.53;;;1.45;;
6475;SDS011;3271;51.910;5.840;2023-04-24T07:19:40;1.33;;;1.23;;
6475;SDS011;3271;51.910;5.840;2023-04-24T07:22:06;0.93;;;0.80;;
6475;SDS011;3271;51.910;5.840;2023-04-24T07:24:32;1.00;;;1.00;;
6475;SDS011;3271;51.910;5.840;2023-04-24T07:26:58;1.02;;;0.82;;
6475;SDS011;3271;51.910;5.840;2023-04-24T07:29:26;1.67;;;0.90;;
6475;SDS011;3271;51.910;5.840;2023-04-24T07:31:51;0.63;;;0.63;;
6475;SDS011;3271;51.910;5.840;2023-04-24T07:34:18;0.80;;;0.80;;
6475;SDS011;3271;51.910;5.840;2023-04-24T07:36:44;2.45;;;0.93;;
6475;SDS011;3271;51.910;5.840;2023-04-24T07:39:11;1.10;;;1.10;;
6475;SDS011;3271;51.910;5.840;2023-04-24T07:41:37;1.67;;;1.30;;
6475;SDS011;3271;51.910;5.840;2023-04-24T07:44:03;2.75;;;1.70;;
6475;SDS011;3271;51.910;5.840;2023-04-24T07:46:29;2.30;;;2.00;;
6475;SDS011;3271;51.910;5.840;2023-04-24T07:48:55;2.65;;;2.42;;
6475;SDS011;3271;51.910;5.840;2023-04-24T07:51:21;3.83;;;3.42;;
6475;SDS011;3271;51.910;5.840;2023-04-24T07:53:47;4.15;;;3.47;;
6475;SDS011;3271;51.910;5.840;2023-04-24T07:56:13;5.70;;;3.97;;
6475;SDS011;3271;51.910;5.840;2023-04-24T07:58:39;4.60;;;4.13;;
6475;SDS011;3271;51.910;5.840;2023-04-24T08:01:05;4.55;;;3.50;;
6475;SDS011;3271;51.910;5.840;2023-04-24T08:03:31;5.97;;;3.70;;
6475;SDS011;3271;51.910;5.840;2023-04-24T08:05:57;4.30;;;3.78;;
6475;SDS011;3271;51.910;5.840;2023-04-24T08:08:23;4.72;;;4.22;;
6475;SDS011;3271;51.910;5.840;2023-04-24T08:10:49;5.75;;;4.15;;
6475;SDS011;3271;51.910;5.840;2023-04-24T08:13:15;5.45;;;3.97;;
6475;SDS011;3271;51.910;5.840;2023-04-24T08:15:41;4.70;;;3.85;;
6475;SDS011;3271;51.910;5.840;2023-04-24T08:18:07;4.50;;;4.10;;
6475;SDS011;3271;51.910;5.840;2023-04-24T08:20:34;4.97;;;4.07;;
6475;SDS011;3271;51.910;5.840;2023-04-24T08:23:01;5.03;;;3.65;;
6475;SDS011;3271;51.910;5.840;2023-04-24T08:25:27;5.47;;;4.40;;
6475;SDS011;3271;51.910;5.840;2023-04-24T08:27:53;6.18;;;4.05;;
6475;SDS011;3271;51.910;5.840;2023-04-24T08:30:19;5.10;;;4.60;;
6475;SDS011;3271;51.910;5.840;2023-04-24T08:32:45;6.43;;;4.55;;
6475;SDS011;3271;51.910;5.840;2023-04-24T08:35:11;5.22;;;4.22;;
6475;SDS011;3271;51.910;5.840;2023-04-24T08:37:37;5.28;;;4.20;;
6475;SDS011;3271;51.910;5.840;2023-04-24T08:40:06;5.47;;;4.55;;
6475;SDS011;3271;51.910;5.840;2023-04-24T08:42:32;6.05;;;4.78;;
6475;SDS011;3271;51.910;5.840;2023-04-24T08:44:59;5.20;;;4.00;;
6475;SDS011;3271;51.910;5.840;2023-04-24T08:47:25;7.78;;;5.00;;
6475;SDS011;3271;51.910;5.840;2023-04-24T08:49:52;4.78;;;4.07;;
6475;SDS011;3271;51.910;5.840;2023-04-24T08:52:19;5.82;;;4.43;;
6475;SDS011;3271;51.910;5.840;2023-04-24T08:54:46;5.43;;;3.90;;
6475;SDS011;3271;51.910;5.840;2023-04-24T08:57:13;6.00;;;4.03;;
6475;SDS011;3271;51.910;5.840;2023-04-24T08:59:39;5.30;;;3.75;;
6475;SDS011;3271;51.910;5.840;2023-04-24T09:02:06;5.22;;;3.38;;
6475;SDS011;3271;51.910;5.840;2023-04-24T09:04:35;5.35;;;2.95;;
6475;SDS011;3271;51.910;5.840;2023-04-24T09:07:01;5.80;;;3.03;;
6475;SDS011;3271;51.910;5.840;2023-04-24T09:09:28;8.48;;;3.63;;
6475;SDS011;3271;51.910;5.840;2023-04-24T09:11:56;4.45;;;3.30;;
6475;SDS011;3271;51.910;5.840;2023-04-24T09:14:22;5.85;;;3.05;;
6475;SDS011;3271;51.910;5.840;2023-04-24T09:16:48;4.47;;;2.92;;
6475;SDS011;3271;51.910;5.840;2023-04-24T09:19:14;5.80;;;2.35;;
6475;SDS011;3271;51.910;5.840;2023-04-24T09:21:40;6.82;;;2.60;;
6475;SDS011;3271;51.910;5.840;2023-04-24T09:24:14;12.32;;;3.50;;
6475;SDS011;3271;51.910;5.840;2023-04-24T09:26:43;9.70;;;2.80;;
6475;SDS011;3271;51.910;5.840;2023-04-24T09:29:13;6.07;;;2.22;;
6475;SDS011;3271;51.910;5.840;2023-04-24T09:31:40;6.10;;;2.20;;
6475;SDS011;3271;51.910;5.840;2023-04-24T09:34:06;5.20;;;2.85;;
6475;SDS011;3271;51.910;5.840;2023-04-24T09:36:33;7.75;;;2.97;;
6475;SDS011;3271;51.910;5.840;2023-04-24T09:39:02;4.82;;;2.03;;
6475;SDS011;3271;51.910;5.840;2023-04-24T09:41:29;4.28;;;2.13;;
6475;SDS011;3271;51.910;5.840;2023-04-24T09:43:55;6.90;;;1.90;;
6475;SDS011;3271;51.910;5.840;2023-04-24T09:46:28;11.52;;;2.67;;
6475;SDS011;3271;51.910;5.840;2023-04-24T09:48:54;7.15;;;2.30;;
6475;SDS011;3271;51.910;5.840;2023-04-24T09:51:24;5.93;;;2.03;;
6475;SDS011;3271;51.910;5.840;2023-04-24T09:53:58;4.75;;;2.42;;
6475;SDS011;3271;51.910;5.840;2023-04-24T09:56:24;5.85;;;2.25;;
6475;SDS011;3271;51.910;5.840;2023-04-24T09:58:51;4.88;;;2.05;;
6475;SDS011;3271;51.910;5.840;2023-04-24T10:01:29;9.55;;;2.30;;
6475;SDS011;3271;51.910;5.840;2023-04-24T10:03:55;5.70;;;2.03;;
6475;SDS011;3271;51.910;5.840;2023-04-24T10:06:21;7.68;;;3.10;;
6475;SDS011;3271;51.910;5.840;2023-04-24T10:08:47;7.28;;;2.38;;
6475;SDS011;3271;51.910;5.840;2023-04-24T10:11:13;3.78;;;1.98;;
6475;SDS011;3271;51.910;5.840;2023-04-24T10:13:40;4.75;;;2.30;;
6475;SDS011;3271;51.910;5.840;2023-04-24T10:16:06;5.68;;;2.30;;
6475;SDS011;3271;51.910;5.840;2023-04-24T10:18:32;5.60;;;2.17;;
6475;SDS011;3271;51.910;5.840;2023-04-24T10:20:59;4.78;;;2.45;;
6475;SDS011;3271;51.910;5.840;2023-04-24T10:23:25;4.72;;;2.00;;
6475;SDS011;3271;51.910;5.840;2023-04-24T10:25:51;7.68;;;2.90;;
6475;SDS011;3271;51.910;5.840;2023-04-24T10:28:18;6.18;;;2.58;;
6475;SDS011;3271;51.910;5.840;2023-04-24T10:30:44;5.70;;;2.78;;
6475;SDS011;3271;51.910;5.840;2023-04-24T10:33:11;7.32;;;2.42;;
6475;SDS011;3271;51.910;5.840;2023-04-24T10:35:39;7.68;;;2.22;;
6475;SDS011;3271;51.910;5.840;2023-04-24T10:38:11;7.05;;;2.65;;
6475;SDS011;3271;51.910;5.840;2023-04-24T10:40:37;6.97;;;2.13;;
6475;SDS011;3271;51.910;5.840;2023-04-24T10:43:04;3.40;;;1.80;;
6475;SDS011;3271;51.910;5.840;2023-04-24T10:45:32;3.20;;;1.63;;
6475;SDS011;3271;51.910;5.840;2023-04-24T10:48:02;2.95;;;1.90;;
6475;SDS011;3271;51.910;5.840;2023-04-24T10:50:29;2.55;;;1.77;;
6475;SDS011;3271;51.910;5.840;2023-04-24T10:53:04;2.72;;;1.73;;
6475;SDS011;3271;51.910;5.840;2023-04-24T10:55:44;2.78;;;1.63;;
6475;SDS011;3271;51.910;5.840;2023-04-24T10:58:10;1.67;;;1.50;;
6475;SDS011;3271;51.910;5.840;2023-04-24T11:00:37;4.93;;;1.75;;
6475;SDS011;3271;51.910;5.840;2023-04-24T11:03:04;4.35;;;1.70;;
6475;SDS011;3271;51.910;5.840;2023-04-24T11:08:16;3.78;;;1.70;;
6475;SDS011;3271;51.910;5.840;2023-04-24T11:10:47;4.10;;;1.40;;
6475;SDS011;3271;51.910;5.840;2023-04-24T11:13:22;3.63;;;1.30;;
6475;SDS011;3271;51.910;5.840;2023-04-24T11:18:37;3.17;;;1.13;;
6475;SDS011;3271;51.910;5.840;2023-04-24T11:21:09;2.72;;;1.17;;
6475;SDS011;3271;51.910;5.840;2023-04-24T11:23:36;2.08;;;1.10;;
6475;SDS011;3271;51.910;5.840;2023-04-24T11:26:44;1.95;;;1.38;;
6475;SDS011;3271;51.910;5.840;2023-04-24T11:29:05;3.03;;;1.13;;
6475;SDS011;3271;51.910;5.840;2023-04-24T11:31:39;1.98;;;1.15;;
6475;SDS011;3271;51.910;5.840;2023-04-24T11:34:10;3.08;;;1.23;;
6475;SDS011;3271;51.910;5.840;2023-04-24T11:36:36;2.28;;;1.10;;
6475;SDS011;3271;51.910;5.840;2023-04-24T11:39:02;2.85;;;1.15;;
6475;SDS011;3271;51.910;5.840;2023-04-24T11:41:28;4.00;;;1.30;;
6475;SDS011;3271;51.910;5.840;2023-04-24T11:43:55;1.75;;;1.13;;
6475;SDS011;3271;51.910;5.840;2023-04-24T11:46:22;2.85;;;1.27;;
6475;SDS011;3271;51.910;5.840;2023-04-24T11:48:48;2.97;;;0.90;;
6475;SDS011;3271;51.910;5.840;2023-04-24T11:51:14;1.25;;;1.00;;
6475;SDS011;3271;51.910;5.840;2023-04-24T11:53:40;2.53;;;1.02;;
6475;SDS011;3271;51.910;5.840;2023-04-24T11:56:06;3.47;;;0.90;;
6475;SDS011;3271;51.910;5.840;2023-04-24T11:58:35;1.85;;;1.00;;
6475;SDS011;3271;51.910;5.840;2023-04-24T12:01:01;1.38;;;1.27;;
6475;SDS011;3271;51.910;5.840;2023-04-24T12:03:27;1.73;;;0.80;;
6475;SDS011;3271;51.910;5.840;2023-04-24T12:06:00;2.75;;;0.98;;
6475;SDS011;3271;51.910;5.840;2023-04-24T12:08:31;3.10;;;1.20;;
6475;SDS011;3271;51.910;5.840;2023-04-24T12:10:57;1.98;;;1.10;;
6475;SDS011;3271;51.910;5.840;2023-04-24T12:13:25;1.83;;;0.90;;
6475;SDS011;3271;51.910;5.840;2023-04-24T12:15:51;1.33;;;1.20;;
6475;SDS011;3271;51.910;5.840;2023-04-24T12:18:17;4.18;;;1.50;;
6475;SDS011;3271;51.910;5.840;2023-04-24T12:20:43;3.38;;;1.20;;
6475;SDS011;3271;51.910;5.840;2023-04-24T12:23:09;3.42;;;1.00;;
6475;SDS011;3271;51.910;5.840;2023-04-24T12:25:34;1.55;;;0.90;;
6475;SDS011;3271;51.910;5.840;2023-04-24T12:30:30;2.05;;;1.17;;
6475;SDS011;3271;51.910;5.840;2023-04-24T12:32:57;4.35;;;1.33;;
6475;SDS011;3271;51.910;5.840;2023-04-24T12:35:23;1.08;;;0.98;;
6475;SDS011;3271;51.910;5.840;2023-04-24T12:37:50;2.42;;;1.00;;
6475;SDS011;3271;51.910;5.840;2023-04-24T12:40:17;1.98;;;1.15;;
6475;SDS011;3271;51.910;5.840;2023-04-24T12:42:44;3.85;;;1.20;;
6475;SDS011;3271;51.910;5.840;2023-04-24T12:45:10;2.63;;;1.13;;
6475;SDS011;3271;51.910;5.840;2023-04-24T12:47:40;4.28;;;1.00;;
6475;SDS011;3271;51.910;5.840;2023-04-24T12:50:07;3.30;;;1.45;;
6475;SDS011;3271;51.910;5.840;2023-04-24T12:52:33;2.38;;;1.30;;
6475;SDS011;3271;51.910;5.840;2023-04-24T12:55:00;4.18;;;1.15;;
6475;SDS011;3271;51.910;5.840;2023-04-24T12:57:28;2.97;;;1.08;;
6475;SDS011;3271;51.910;5.840;2023-04-24T12:59:55;1.83;;;1.00;;
6475;SDS011;3271;51.910;5.840;2023-04-24T13:02:21;2.83;;;0.90;;
6475;SDS011;3271;51.910;5.840;2023-04-24T13:04:48;4.78;;;1.30;;
6475;SDS011;3271;51.910;5.840;2023-04-24T13:07:14;2.35;;;1.08;;
6475;SDS011;3271;51.910;5.840;2023-04-24T13:09:41;3.17;;;1.88;;
6475;SDS011;3271;51.910;5.840;2023-04-24T13:12:07;3.30;;;1.15;;
6475;SDS011;3271;51.910;5.840;2023-04-24T13:14:33;3.30;;;1.20;;
6475;SDS011;3271;51.910;5.840;2023-04-24T13:16:59;2.60;;;1.33;;
6475;SDS011;3271;51.910;5.840;2023-04-24T13:19:25;4.43;;;1.33;;
6475;SDS011;3271;51.910;5.840;2023-04-24T13:21:51;2.80;;;0.98;;
6475;SDS011;3271;51.910;5.840;2023-04-24T13:24:17;3.95;;;1.30;;
6475;SDS011;3271;51.910;5.840;2023-04-24T13:26:43;2.08;;;1.30;;
6475;SDS011;3271;51.910;5.840;2023-04-24T13:29:09;3.60;;;1.60;;
6475;SDS011;3271;51.910;5.840;2023-04-24T13:31:35;2.70;;;1.40;;
6475;SDS011;3271;51.910;5.840;2023-04-24T13:34:02;4.63;;;1.70;;
6475;SDS011;3271;51.910;5.840;2023-04-24T13:36:28;6.15;;;2.05;;
6475;SDS011;3271;51.910;5.840;2023-04-24T13:38:55;3.60;;;1.27;;
6475;SDS011;3271;51.910;5.840;2023-04-24T13:41:21;3.20;;;1.45;;
6475;SDS011;3271;51.910;5.840;2023-04-24T13:43:47;3.85;;;1.65;;
6475;SDS011;3271;51.910;5.840;2023-04-24T13:46:13;4.55;;;1.13;;
6475;SDS011;3271;51.910;5.840;2023-04-24T13:48:39;4.65;;;1.58;;
6475;SDS011;3271;51.910;5.840;2023-04-24T13:51:05;3.03;;;1.27;;
6475;SDS011;3271;51.910;5.840;2023-04-24T13:53:31;4.30;;;1.40;;
6475;SDS011;3271;51.910;5.840;2023-04-24T13:55:57;6.25;;;2.00;;
6475;SDS011;3271;51.910;5.840;2023-04-24T13:58:23;4.68;;;2.40;;
6475;SDS011;3271;51.910;5.840;2023-04-24T14:00:49;3.00;;;1.58;;
6475;SDS011;3271;51.910;5.840;2023-04-24T14:03:15;5.03;;;1.48;;
6475;SDS011;3271;51.910;5.840;2023-04-24T14:05:41;4.43;;;1.40;;
6475;SDS011;3271;51.910;5.840;2023-04-24T14:08:07;3.95;;;1.65;;
6475;SDS011;3271;51.910;5.840;2023-04-24T14:10:33;3.33;;;1.67;;
6475;SDS011;3271;51.910;5.840;2023-04-24T14:12:59;5.32;;;2.00;;
6475;SDS011;3271;51.910;5.840;2023-04-24T14:15:25;4.20;;;2.10;;
6475;SDS011;3271;51.910;5.840;2023-04-24T14:17:51;5.18;;;1.92;;
6475;SDS011;3271;51.910;5.840;2023-04-24T14:20:16;6.50;;;2.40;;
6475;SDS011;3271;51.910;5.840;2023-04-24T14:22:42;4.68;;;2.28;;
6475;SDS011;3271;51.910;5.840;2023-04-24T14:25:09;3.63;;;2.00;;
6475;SDS011;3271;51.910;5.840;2023-04-24T14:27:35;4.50;;;2.13;;
6475;SDS011;3271;51.910;5.840;2023-04-24T14:30:01;8.80;;;2.45;;
6475;SDS011;3271;51.910;5.840;2023-04-24T14:32:27;5.65;;;2.08;;
6475;SDS011;3271;51.910;5.840;2023-04-24T14:34:53;6.15;;;2.10;;
6475;SDS011;3271;51.910;5.840;2023-04-24T14:37:19;6.65;;;2.22;;
6475;SDS011;3271;51.910;5.840;2023-04-24T14:39:45;5.93;;;2.50;;
6475;SDS011;3271;51.910;5.840;2023-04-24T14:42:11;4.72;;;1.80;;
6475;SDS011;3271;51.910;5.840;2023-04-24T14:44:37;2.80;;;1.63;;
6475;SDS011;3271;51.910;5.840;2023-04-24T14:47:03;5.60;;;1.85;;
6475;SDS011;3271;51.910;5.840;2023-04-24T14:49:29;5.25;;;2.65;;
6475;SDS011;3271;51.910;5.840;2023-04-24T14:51:55;4.40;;;1.73;;
6475;SDS011;3271;51.910;5.840;2023-04-24T14:54:21;5.38;;;2.05;;
6475;SDS011;3271;51.910;5.840;2023-04-24T14:56:49;4.47;;;1.80;;
6475;SDS011;3271;51.910;5.840;2023-04-24T14:59:15;6.35;;;2.10;;
6475;SDS011;3271;51.910;5.840;2023-04-24T15:01:40;6.57;;;2.35;;
6475;SDS011;3271;51.910;5.840;2023-04-24T15:04:06;5.68;;;2.10;;
6475;SDS011;3271;51.910;5.840;2023-04-24T15:06:32;8.35;;;2.40;;
6475;SDS011;3271;51.910;5.840;2023-04-24T15:08:58;6.28;;;2.33;;
6475;SDS011;3271;51.910;5.840;2023-04-24T15:11:25;13.65;;;2.67;;
6475;SDS011;3271;51.910;5.840;2023-04-24T15:13:51;9.63;;;2.63;;